createdAt,value
2023-03-22T00:01:22.764Z,43.20
2023-03-22T00:03:51.830Z,47.17
2023-03-22T00:06:19.397Z,48.92
2023-03-22T00:08:50.755Z,47.80
2023-03-22T00:11:19.052Z,53.40
2023-03-22T00:13:47.181Z,46.38
2023-03-22T00:16:15.234Z,49.92
2023-03-22T00:18:42.289Z,53.47
2023-03-22T00:21:13.435Z,53.35
2023-03-22T00:23:41.151Z,61.40
2023-03-22T00:26:09.730Z,55.33
2023-03-22T00:28:37.945Z,50.65
2023-03-22T00:31:06.172Z,53.47
2023-03-22T00:33:33.701Z,51.03
2023-03-22T00:36:03.587Z,52.25
2023-03-22T00:38:44.046Z,52.88
2023-03-22T00:41:18.786Z,51.15
2023-03-22T00:43:47.288Z,53.42
2023-03-22T00:46:15.808Z,50.83
2023-03-22T00:48:43.077Z,45.90
2023-03-22T00:51:11.234Z,45.70
2023-03-22T00:53:42.361Z,47.67
2023-03-22T00:56:14.023Z,47.17
2023-03-22T00:59:02.388Z,53.05
2023-03-22T01:01:30.836Z,47.92
2023-03-22T01:03:58.110Z,42.25
2023-03-22T01:06:25.399Z,44.85
2023-03-22T01:08:55.151Z,45.80
2023-03-22T01:11:22.288Z,43.20
2023-03-22T01:13:49.700Z,53.65
2023-03-22T01:16:17.958Z,42.13
2023-03-22T01:18:45.309Z,46.00
2023-03-22T01:21:12.816Z,47.38
2023-03-22T01:23:40.378Z,51.28
2023-03-22T01:26:07.808Z,46.70
2023-03-22T01:28:34.759Z,49.03
2023-03-22T01:31:03.097Z,48.70
2023-03-22T01:33:31.478Z,46.83
2023-03-22T01:35:59.271Z,49.88
2023-03-22T01:38:27.360Z,46.00
2023-03-22T01:40:58.565Z,51.80
2023-03-22T01:43:27.117Z,50.30
2023-03-22T01:45:55.297Z,50.47
2023-03-22T01:48:30.150Z,49.35
2023-03-22T01:51:25.269Z,53.03
2023-03-22T01:54:16.448Z,52.22
2023-03-22T01:56:44.360Z,50.08
2023-03-22T01:59:19.225Z,52.03
2023-03-22T02:02:10.929Z,48.95
2023-03-22T02:04:39.409Z,56.60
2023-03-22T02:07:15.587Z,48.95
2023-03-22T02:09:46.128Z,49.75
2023-03-22T02:12:19.468Z,57.13
2023-03-22T02:14:55.133Z,49.80
2023-03-22T02:18:24.754Z,49.22
2023-03-22T02:21:19.128Z,45.33
2023-03-22T02:24:10.793Z,53.42
2023-03-22T02:26:59.333Z,49.58
2023-03-22T02:29:36.955Z,50.03
2023-03-22T02:32:31.987Z,46.05
2023-03-22T02:35:10.882Z,55.33
2023-03-22T02:37:51.012Z,50.65
2023-03-22T02:40:34.716Z,50.05
2023-03-22T02:43:18.833Z,54.28
2023-03-22T02:45:58.450Z,56.13
2023-03-22T02:48:44.380Z,50.25
2023-03-22T02:51:41.182Z,47.95
2023-03-22T02:54:44.487Z,50.88
2023-03-22T02:57:22.828Z,50.95
2023-03-22T02:59:51.594Z,52.30
2023-03-22T03:02:21.161Z,45.50
2023-03-22T03:04:51.275Z,43.15
2023-03-22T03:07:22.011Z,54.13
2023-03-22T03:09:51.242Z,51.10
2023-03-22T03:12:23.968Z,51.30
2023-03-22T03:14:53.940Z,46.03
2023-03-22T03:17:38.166Z,51.80
2023-03-22T03:20:37.232Z,49.45
2023-03-22T03:23:21.485Z,46.97
2023-03-22T03:26:16.990Z,47.05
2023-03-22T03:28:58.495Z,44.78
2023-03-22T03:31:25.889Z,52.28
2023-03-22T03:34:13.054Z,45.88
2023-03-22T03:36:44.304Z,58.35
2023-03-22T03:39:15.282Z,46.50
2023-03-22T03:41:45.871Z,46.85
2023-03-22T03:44:13.964Z,45.83
2023-03-22T03:46:41.694Z,47.45
2023-03-22T03:49:09.988Z,49.17
2023-03-22T03:51:50.316Z,46.90
2023-03-22T03:54:17.728Z,41.15
2023-03-22T03:56:44.842Z,44.92
2023-03-22T03:59:12.364Z,47.78
2023-03-22T04:01:40.140Z,45.45
2023-03-22T04:04:15.244Z,49.88
2023-03-22T04:06:48.883Z,45.63
2023-03-22T04:09:21.142Z,46.90
2023-03-22T04:11:54.065Z,43.92
2023-03-22T04:14:21.785Z,46.92
2023-03-22T04:16:51.292Z,44.28
2023-03-22T04:19:21.792Z,48.20
2023-03-22T04:21:49.109Z,43.60
2023-03-22T04:24:16.147Z,45.88
2023-03-22T04:26:46.239Z,46.63
2023-03-22T04:29:36.287Z,43.88
2023-03-22T04:32:26.731Z,43.72
2023-03-22T04:34:55.652Z,42.72
2023-03-22T04:37:27.153Z,46.60
2023-03-22T04:40:35.223Z,43.65
2023-03-22T04:43:09.936Z,47.22
2023-03-22T04:45:46.326Z,42.38
2023-03-22T04:48:17.613Z,46.45
2023-03-22T04:50:45.603Z,45.00
2023-03-22T04:53:12.657Z,48.03
2023-03-22T04:55:40.594Z,45.53
2023-03-22T04:58:07.535Z,44.50
2023-03-22T05:00:37.720Z,46.15
2023-03-22T05:03:05.849Z,42.67
2023-03-22T05:05:39.604Z,42.38
2023-03-22T05:08:06.928Z,46.75
2023-03-22T05:10:33.914Z,43.47
2023-03-22T05:13:01.116Z,45.60
2023-03-22T05:15:32.898Z,43.20
2023-03-22T05:18:02.528Z,42.40
2023-03-22T05:20:29.488Z,45.45
2023-03-22T05:25:51.516Z,50.55
2023-03-22T05:28:21.345Z,48.17
2023-03-22T05:31:24.010Z,52.78
2023-03-22T05:33:56.599Z,45.60
2023-03-22T05:36:29.648Z,42.63
2023-03-22T05:39:09.466Z,45.90
2023-03-22T05:41:37.051Z,48.55
2023-03-22T05:44:05.309Z,45.88
2023-03-22T05:46:33.556Z,43.30
2023-03-22T05:49:23.366Z,42.33
2023-03-22T05:51:50.624Z,40.92
2023-03-22T05:54:18.599Z,46.10
2023-03-22T05:56:49.930Z,44.58
2023-03-22T05:59:16.934Z,49.53
2023-03-22T06:01:44.697Z,43.10
2023-03-22T06:04:23.631Z,45.20
2023-03-22T06:07:10.933Z,46.75
2023-03-22T06:09:43.030Z,43.97
2023-03-22T06:12:17.483Z,49.85
2023-03-22T06:14:50.625Z,49.28
2023-03-22T06:17:24.458Z,47.85
2023-03-22T06:19:53.183Z,46.80
2023-03-22T06:22:21.981Z,49.95
2023-03-22T06:24:49.987Z,47.83
2023-03-22T06:27:23.937Z,46.23
2023-03-22T06:29:54.647Z,42.65
2023-03-22T06:32:24.802Z,49.42
2023-03-22T06:34:51.752Z,47.05
2023-03-22T06:37:20.463Z,48.60
2023-03-22T06:39:48.355Z,46.78
2023-03-22T06:42:15.709Z,47.42
2023-03-22T06:44:45.209Z,48.30
2023-03-22T06:47:24.680Z,53.38
2023-03-22T06:50:10.885Z,45.75
2023-03-22T06:52:55.199Z,49.17
2023-03-22T06:55:22.408Z,51.75
2023-03-22T06:57:49.775Z,56.33
2023-03-22T07:00:17.484Z,47.75
2023-03-22T07:02:44.459Z,61.10
2023-03-22T07:05:40.907Z,57.25
2023-03-22T07:08:08.123Z,53.35
2023-03-22T07:10:39.310Z,50.10
2023-03-22T07:13:06.668Z,52.80
2023-03-22T07:15:35.368Z,56.83
2023-03-22T07:18:13.303Z,50.15
2023-03-22T07:20:41.760Z,49.55
2023-03-22T07:23:10.864Z,55.05
2023-03-22T07:25:46.991Z,52.97
2023-03-22T07:30:49.023Z,53.22
2023-03-22T07:33:18.437Z,56.17
2023-03-22T07:35:45.578Z,55.00
2023-03-22T07:38:13.090Z,55.40
2023-03-22T07:40:41.766Z,54.50
2023-03-22T07:43:12.022Z,56.67
2023-03-22T07:45:51.537Z,57.50
2023-03-22T07:48:37.044Z,50.45
2023-03-22T07:51:39.046Z,56.38
2023-03-22T07:54:07.797Z,55.83
2023-03-22T07:56:35.178Z,57.42
2023-03-22T07:59:02.372Z,53.78
2023-03-22T08:01:29.573Z,60.55
2023-03-22T08:04:14.124Z,59.08
2023-03-22T08:06:49.840Z,63.45
2023-03-22T08:09:17.737Z,64.18
2023-03-22T08:11:44.756Z,61.08
2023-03-22T08:14:11.797Z,60.88
2023-03-22T08:16:39.402Z,61.38
2023-03-22T08:19:06.722Z,62.92
2023-03-22T08:21:36.982Z,54.38
2023-03-22T08:24:07.372Z,59.22
2023-03-22T08:29:27.742Z,65.13
2023-03-22T08:31:55.700Z,59.33
2023-03-22T08:34:23.431Z,69.68
2023-03-22T08:36:50.359Z,70.68
2023-03-22T08:39:18.049Z,68.60
2023-03-22T08:41:52.770Z,67.03
2023-03-22T08:44:20.239Z,72.30
2023-03-22T08:46:47.238Z,68.55
2023-03-22T08:49:15.037Z,76.43
2023-03-22T08:51:48.250Z,64.78
2023-03-22T08:54:33.530Z,59.47
2023-03-22T08:57:03.348Z,65.68
2023-03-22T08:59:43.592Z,68.35
2023-03-22T09:02:33.752Z,71.10
2023-03-22T09:05:01.327Z,71.88
2023-03-22T09:07:28.531Z,75.88
2023-03-22T09:10:04.772Z,70.28
2023-03-22T09:12:33.728Z,64.63
2023-03-22T09:15:00.710Z,76.63
2023-03-22T09:17:30.468Z,73.50
2023-03-22T09:20:11.185Z,72.82
2023-03-22T09:22:39.064Z,78.65
2023-03-22T09:25:07.154Z,70.18
2023-03-22T09:27:34.405Z,77.65
2023-03-22T09:30:01.368Z,74.30
2023-03-22T09:32:28.354Z,71.95
2023-03-22T09:35:00.148Z,75.80
2023-03-22T09:37:34.442Z,73.18
2023-03-22T09:40:01.967Z,77.22
2023-03-22T09:42:44.170Z,76.78
2023-03-22T09:45:38.527Z,67.35
2023-03-22T09:48:13.241Z,79.93
2023-03-22T09:50:46.688Z,63.97
2023-03-22T09:53:15.700Z,68.85
2023-03-22T09:56:13.288Z,68.25
2023-03-22T09:58:52.756Z,68.88
2023-03-22T10:01:29.140Z,74.00
2023-03-22T10:04:12.885Z,67.65
2023-03-22T10:06:46.048Z,61.92
2023-03-22T10:09:42.193Z,73.78
2023-03-22T10:12:22.389Z,72.78
2023-03-22T10:15:03.935Z,69.35
2023-03-22T10:17:31.497Z,71.53
2023-03-22T10:20:08.625Z,64.60
2023-03-22T10:22:45.870Z,62.10
2023-03-22T10:25:18.853Z,62.35
2023-03-22T10:27:48.827Z,65.60
2023-03-22T10:30:23.250Z,66.38
2023-03-22T10:33:04.669Z,62.45
2023-03-22T10:35:32.466Z,58.33
2023-03-22T10:38:03.747Z,57.25
2023-03-22T10:40:34.070Z,54.45
2023-03-22T10:43:10.041Z,62.95
2023-03-22T10:45:38.205Z,61.88
2023-03-22T10:48:11.753Z,61.08
2023-03-22T10:50:42.215Z,57.28
2023-03-22T10:53:32.829Z,55.67
2023-03-22T10:55:59.865Z,59.55
2023-03-22T10:58:34.402Z,63.40
2023-03-22T11:01:11.627Z,62.53
2023-03-22T11:03:49.833Z,59.60
2023-03-22T11:06:25.034Z,66.35
2023-03-22T11:08:58.774Z,59.17
2023-03-22T11:11:29.527Z,60.13
2023-03-22T11:14:02.798Z,63.80
2023-03-22T11:16:31.459Z,58.25
2023-03-22T11:19:02.085Z,59.85
2023-03-22T11:21:33.249Z,60.58
2023-03-22T11:24:06.838Z,59.65
2023-03-22T11:26:39.178Z,60.17
2023-03-22T11:29:11.718Z,54.87
2023-03-22T11:31:55.145Z,59.58
2023-03-22T11:34:26.443Z,57.42
2023-03-22T11:36:59.322Z,53.60
2023-03-22T11:39:28.571Z,53.10
2023-03-22T11:42:01.768Z,55.65
2023-03-22T11:44:34.241Z,53.92
2023-03-22T11:47:03.169Z,55.50
2023-03-22T11:49:48.591Z,56.05
2023-03-22T11:52:36.042Z,62.45
2023-03-22T11:55:04.002Z,60.42
2023-03-22T11:57:33.919Z,63.17
2023-03-22T12:00:11.859Z,59.03
2023-03-22T12:02:48.867Z,60.22
2023-03-22T12:05:27.253Z,59.20
2023-03-22T12:08:17.350Z,56.25
2023-03-22T12:10:49.226Z,56.60
2023-03-22T12:13:21.212Z,57.00
2023-03-22T12:15:55.397Z,57.50
2023-03-22T12:18:41.467Z,54.05
2023-03-22T12:23:37.160Z,52.65
2023-03-22T12:26:10.993Z,59.80
2023-03-22T12:28:45.699Z,55.50
2023-03-22T12:31:38.227Z,57.90
2023-03-22T12:34:08.848Z,60.95
2023-03-22T12:36:42.860Z,57.70
2023-03-22T12:39:22.798Z,56.25
2023-03-22T12:41:52.965Z,54.70
2023-03-22T12:44:40.613Z,54.00
2023-03-22T12:47:25.056Z,55.55
2023-03-22T12:50:13.432Z,55.97
2023-03-22T12:52:54.901Z,53.78
2023-03-22T12:55:36.304Z,55.38
2023-03-22T12:58:06.666Z,48.67
2023-03-22T13:00:44.253Z,58.95
2023-03-22T13:03:20.161Z,56.40
2023-03-22T13:05:50.154Z,47.58
2023-03-22T13:08:22.452Z,48.67
2023-03-22T13:11:00.281Z,50.58
2023-03-22T13:13:27.787Z,48.20
2023-03-22T13:16:09.874Z,45.28
2023-03-22T13:18:40.072Z,51.20
2023-03-22T13:21:21.993Z,48.50
2023-03-22T13:24:20.863Z,47.63
2023-03-22T13:26:51.582Z,53.30
2023-03-22T13:29:38.366Z,46.80
2023-03-22T13:32:28.540Z,46.78
2023-03-22T13:34:56.420Z,42.42
2023-03-22T13:37:34.865Z,41.47
2023-03-22T13:40:22.132Z,41.83
2023-03-22T13:42:50.669Z,40.22
2023-03-22T13:45:33.563Z,40.20
2023-03-22T13:48:12.487Z,36.28
2023-03-22T13:50:40.149Z,33.92
2023-03-22T13:53:23.975Z,31.63
2023-03-22T13:55:51.810Z,34.63
2023-03-22T13:58:36.092Z,32.50
2023-03-22T14:01:14.433Z,31.73
2023-03-22T14:03:44.054Z,26.90
2023-03-22T14:06:20.338Z,26.58
2023-03-22T14:08:52.611Z,31.25
2023-03-22T14:11:51.981Z,28.27
2023-03-22T14:14:29.853Z,25.20
2023-03-22T14:17:20.355Z,28.25
2023-03-22T14:19:48.406Z,30.23
